sensor_id;sensor_type;location;lat;lon;timestamp;P1;durP1;ratioP1;P2;durP2;ratioP2
10511;SDS011;5304;48.604;2.096;2023-11-19T05:03:19;8.73;;;2.53;;
10511;SDS011;5304;48.604;2.096;2023-11-19T05:06:04;10.13;;;2.53;;
10511;SDS011;5304;48.604;2.096;2023-11-19T05:08:49;9.07;;;2.53;;
10511;SDS011;5304;48.604;2.096;2023-11-19T05:11:34;8.83;;;2.80;;
10511;SDS011;5304;48.604;2.096;2023-11-19T05:14:18;8.17;;;2.43;;
10511;SDS011;5304;48.604;2.096;2023-11-19T05:17:04;6.57;;;2.00;;
10511;SDS011;5304;48.604;2.096;2023-11-19T05:19:48;4.87;;;2.20;;
10511;SDS011;5304;48.604;2.096;2023-11-19T05:22:32;8.10;;;2.70;;
10511;SDS011;5304;48.604;2.096;2023-11-19T05:25:17;5.90;;;2.17;;
10511;SDS011;5304;48.604;2.096;2023-11-19T05:28:01;4.80;;;2.20;;
10511;SDS011;5304;48.604;2.096;2023-11-19T05:30:45;9.23;;;2.50;;
10511;SDS011;5304;48.604;2.096;2023-11-19T05:33:29;7.33;;;2.20;;
10511;SDS011;5304;48.604;2.096;2023-11-19T05:36:14;6.10;;;2.70;;
10511;SDS011;5304;48.604;2.096;2023-11-19T05:38:58;7.63;;;2.53;;
10511;SDS011;5304;48.604;2.096;2023-11-19T05:41:42;6.03;;;2.37;;
10511;SDS011;5304;48.604;2.096;2023-11-19T05:44:27;5.93;;;1.90;;
10511;SDS011;5304;48.604;2.096;2023-11-19T05:47:11;6.87;;;2.33;;
10511;SDS011;5304;48.604;2.096;2023-11-19T05:49:56;5.97;;;2.10;;
10511;SDS011;5304;48.604;2.096;2023-11-19T05:52:40;6.47;;;2.10;;
10511;SDS011;5304;48.604;2.096;2023-11-19T05:55:24;5.23;;;1.80;;
10511;SDS011;5304;48.604;2.096;2023-11-19T05:58:11;9.80;;;2.50;;
10511;SDS011;5304;48.604;2.096;2023-11-19T06:00:58;11.47;;;3.10;;
10511;SDS011;5304;48.604;2.096;2023-11-19T06:03:44;9.10;;;1.93;;
10511;SDS011;5304;48.604;2.096;2023-11-19T06:06:33;9.30;;;2.47;;
10511;SDS011;5304;48.604;2.096;2023-11-19T06:09:17;6.30;;;2.10;;
10511;SDS011;5304;48.604;2.096;2023-11-19T06:12:02;7.90;;;2.57;;
10511;SDS011;5304;48.604;2.096;2023-11-19T06:14:47;9.30;;;2.00;;
10511;SDS011;5304;48.604;2.096;2023-11-19T06:17:32;7.63;;;1.83;;
10511;SDS011;5304;48.604;2.096;2023-11-19T06:20:16;8.87;;;2.57;;
10511;SDS011;5304;48.604;2.096;2023-11-19T06:23:00;7.73;;;2.30;;
10511;SDS011;5304;48.604;2.096;2023-11-19T06:25:45;7.07;;;2.13;;
10511;SDS011;5304;48.604;2.096;2023-11-19T06:28:29;6.57;;;2.90;;
10511;SDS011;5304;48.604;2.096;2023-11-19T06:31:13;7.33;;;2.07;;
10511;SDS011;5304;48.604;2.096;2023-11-19T06:33:59;8.63;;;2.17;;
10511;SDS011;5304;48.604;2.096;2023-11-19T06:36:44;6.63;;;2.63;;
10511;SDS011;5304;48.604;2.096;2023-11-19T06:39:28;5.87;;;2.13;;
10511;SDS011;5304;48.604;2.096;2023-11-19T06:42:12;4.80;;;2.20;;
10511;SDS011;5304;48.604;2.096;2023-11-19T06:44:57;9.23;;;2.33;;
10511;SDS011;5304;48.604;2.096;2023-11-19T06:47:41;7.70;;;2.17;;
10511;SDS011;5304;48.604;2.096;2023-11-19T06:50:25;5.90;;;1.97;;
10511;SDS011;5304;48.604;2.096;2023-11-19T06:53:09;4.03;;;1.50;;
10511;SDS011;5304;48.604;2.096;2023-11-19T06:55:54;6.87;;;2.10;;
10511;SDS011;5304;48.604;2.096;2023-11-19T06:58:38;6.87;;;2.00;;
10511;SDS011;5304;48.604;2.096;2023-11-19T07:01:23;12.37;;;2.37;;
10511;SDS011;5304;48.604;2.096;2023-11-19T07:04:13;11.50;;;2.80;;
10511;SDS011;5304;48.604;2.096;2023-11-19T07:06:57;10.63;;;2.37;;
10511;SDS011;5304;48.604;2.096;2023-11-19T07:09:41;5.33;;;2.10;;
10511;SDS011;5304;48.604;2.096;2023-11-19T07:12:26;9.23;;;2.03;;
10511;SDS011;5304;48.604;2.096;2023-11-19T07:15:10;10.00;;;2.30;;
10511;SDS011;5304;48.604;2.096;2023-11-19T07:17:55;7.83;;;2.03;;
10511;SDS011;5304;48.604;2.096;2023-11-19T07:20:41;11.07;;;2.97;;
10511;SDS011;5304;48.604;2.096;2023-11-19T07:23:25;5.57;;;2.20;;
10511;SDS011;5304;48.604;2.096;2023-11-19T07:26:11;10.73;;;3.13;;
10511;SDS011;5304;48.604;2.096;2023-11-19T07:28:55;10.07;;;2.33;;
10511;SDS011;5304;48.604;2.096;2023-11-19T07:31:39;6.97;;;2.50;;
10511;SDS011;5304;48.604;2.096;2023-11-19T07:34:24;10.23;;;2.70;;
10511;SDS011;5304;48.604;2.096;2023-11-19T07:37:08;8.87;;;2.30;;
10511;SDS011;5304;48.604;2.096;2023-11-19T07:39:53;9.70;;;2.47;;
10511;SDS011;5304;48.604;2.096;2023-11-19T07:42:37;12.10;;;2.67;;
10511;SDS011;5304;48.604;2.096;2023-11-19T07:45:21;9.90;;;2.53;;
10511;SDS011;5304;48.604;2.096;2023-11-19T07:48:06;14.70;;;3.17;;
10511;SDS011;5304;48.604;2.096;2023-11-19T07:50:50;11.83;;;2.13;;
10511;SDS011;5304;48.604;2.096;2023-11-19T07:53:34;13.77;;;2.80;;
10511;SDS011;5304;48.604;2.096;2023-11-19T07:56:18;11.17;;;2.53;;
10511;SDS011;5304;48.604;2.096;2023-11-19T07:59:03;8.90;;;2.37;;
10511;SDS011;5304;48.604;2.096;2023-11-19T08:01:47;7.33;;;2.40;;
10511;SDS011;5304;48.604;2.096;2023-11-19T08:04:32;9.07;;;3.00;;
10511;SDS011;5304;48.604;2.096;2023-11-19T08:07:17;14.37;;;2.97;;
10511;SDS011;5304;48.604;2.096;2023-11-19T08:10:02;14.10;;;2.90;;
10511;SDS011;5304;48.604;2.096;2023-11-19T08:12:48;11.60;;;2.97;;
10511;SDS011;5304;48.604;2.096;2023-11-19T08:15:33;11.97;;;3.10;;
10511;SDS011;5304;48.604;2.096;2023-11-19T08:18:17;14.50;;;3.03;;
10511;SDS011;5304;48.604;2.096;2023-11-19T08:21:01;16.03;;;3.07;;
10511;SDS011;5304;48.604;2.096;2023-11-19T08:23:48;14.17;;;2.90;;
10511;SDS011;5304;48.604;2.096;2023-11-19T08:26:32;9.50;;;2.63;;
10511;SDS011;5304;48.604;2.096;2023-11-19T08:29:17;15.00;;;2.80;;
10511;SDS011;5304;48.604;2.096;2023-11-19T08:32:01;10.03;;;2.93;;
10511;SDS011;5304;48.604;2.096;2023-11-19T08:34:46;13.67;;;3.57;;
10511;SDS011;5304;48.604;2.096;2023-11-19T08:37:31;11.97;;;3.27;;
10511;SDS011;5304;48.604;2.096;2023-11-19T08:40:15;15.37;;;3.20;;
10511;SDS011;5304;48.604;2.096;2023-11-19T08:42:59;14.30;;;3.90;;
10511;SDS011;5304;48.604;2.096;2023-11-19T08:45:44;14.73;;;3.67;;
10511;SDS011;5304;48.604;2.096;2023-11-19T08:48:28;9.70;;;3.40;;
10511;SDS011;5304;48.604;2.096;2023-11-19T08:51:13;8.33;;;2.77;;
10511;SDS011;5304;48.604;2.096;2023-11-19T08:53:57;16.27;;;3.90;;
10511;SDS011;5304;48.604;2.096;2023-11-19T08:56:42;13.03;;;3.00;;
10511;SDS011;5304;48.604;2.096;2023-11-19T08:59:26;11.27;;;3.00;;
10511;SDS011;5304;48.604;2.096;2023-11-19T09:02:11;8.33;;;3.30;;
10511;SDS011;5304;48.604;2.096;2023-11-19T09:04:55;12.00;;;3.30;;
10511;SDS011;5304;48.604;2.096;2023-11-19T09:07:39;12.00;;;3.30;;
10511;SDS011;5304;48.604;2.096;2023-11-19T09:10:24;10.23;;;3.37;;
10511;SDS011;5304;48.604;2.096;2023-11-19T09:13:08;10.73;;;2.97;;
10511;SDS011;5304;48.604;2.096;2023-11-19T09:15:52;12.60;;;2.83;;
10511;SDS011;5304;48.604;2.096;2023-11-19T09:18:36;15.30;;;3.13;;
10511;SDS011;5304;48.604;2.096;2023-11-19T09:21:20;11.27;;;2.97;;
10511;SDS011;5304;48.604;2.096;2023-11-19T09:24:05;12.00;;;3.57;;
10511;SDS011;5304;48.604;2.096;2023-11-19T09:26:51;12.00;;;3.03;;
10511;SDS011;5304;48.604;2.096;2023-11-19T09:29:35;13.70;;;3.43;;
10511;SDS011;5304;48.604;2.096;2023-11-19T09:32:19;17.53;;;3.70;;
10511;SDS011;5304;48.604;2.096;2023-11-19T09:35:04;13.13;;;3.47;;
10511;SDS011;5304;48.604;2.096;2023-11-19T09:37:49;14.20;;;3.53;;
10511;SDS011;5304;48.604;2.096;2023-11-19T09:40:34;10.70;;;3.27;;
10511;SDS011;5304;48.604;2.096;2023-11-19T09:43:19;14.03;;;3.03;;
10511;SDS011;5304;48.604;2.096;2023-11-19T09:46:04;11.37;;;2.67;;
10511;SDS011;5304;48.604;2.096;2023-11-19T09:48:51;10.93;;;3.20;;
10511;SDS011;5304;48.604;2.096;2023-11-19T09:51:38;11.93;;;3.17;;
10511;SDS011;5304;48.604;2.096;2023-11-19T09:54:23;12.77;;;3.50;;
10511;SDS011;5304;48.604;2.096;2023-11-19T09:57:07;14.97;;;4.17;;
10511;SDS011;5304;48.604;2.096;2023-11-19T09:59:53;13.13;;;2.83;;
10511;SDS011;5304;48.604;2.096;2023-11-19T10:02:38;16.43;;;4.03;;
10511;SDS011;5304;48.604;2.096;2023-11-19T10:05:23;11.90;;;3.33;;
10511;SDS011;5304;48.604;2.096;2023-11-19T10:08:08;16.13;;;3.33;;
10511;SDS011;5304;48.604;2.096;2023-11-19T10:10:52;15.57;;;3.77;;
10511;SDS011;5304;48.604;2.096;2023-11-19T10:13:36;17.23;;;3.30;;
10511;SDS011;5304;48.604;2.096;2023-11-19T10:16:28;13.47;;;3.50;;
10511;SDS011;5304;48.604;2.096;2023-11-19T10:19:20;12.30;;;3.27;;
10511;SDS011;5304;48.604;2.096;2023-11-19T10:22:05;16.67;;;3.43;;
10511;SDS011;5304;48.604;2.096;2023-11-19T10:24:49;14.57;;;2.70;;
10511;SDS011;5304;48.604;2.096;2023-11-19T10:27:34;13.80;;;3.53;;
10511;SDS011;5304;48.604;2.096;2023-11-19T10:30:22;16.27;;;3.37;;
10511;SDS011;5304;48.604;2.096;2023-11-19T10:33:10;16.07;;;3.43;;
10511;SDS011;5304;48.604;2.096;2023-11-19T10:36:00;11.93;;;3.00;;
10511;SDS011;5304;48.604;2.096;2023-11-19T10:38:55;16.03;;;3.77;;
10511;SDS011;5304;48.604;2.096;2023-11-19T10:41:40;14.37;;;3.33;;
10511;SDS011;5304;48.604;2.096;2023-11-19T10:44:31;17.30;;;3.77;;
10511;SDS011;5304;48.604;2.096;2023-11-19T10:47:20;13.50;;;3.40;;
10511;SDS011;5304;48.604;2.096;2023-11-19T10:50:06;13.67;;;3.20;;
10511;SDS011;5304;48.604;2.096;2023-11-19T10:52:52;14.87;;;4.10;;
10511;SDS011;5304;48.604;2.096;2023-11-19T10:55:46;13.57;;;3.33;;
10511;SDS011;5304;48.604;2.096;2023-11-19T10:58:32;16.77;;;3.33;;
10511;SDS011;5304;48.604;2.096;2023-11-19T11:01:19;15.83;;;3.20;;
10511;SDS011;5304;48.604;2.096;2023-11-19T11:04:10;13.97;;;3.33;;
10511;SDS011;5304;48.604;2.096;2023-11-19T11:06:58;16.33;;;3.10;;
10511;SDS011;5304;48.604;2.096;2023-11-19T11:09:43;16.83;;;4.27;;
10511;SDS011;5304;48.604;2.096;2023-11-19T11:12:29;16.03;;;4.13;;
10511;SDS011;5304;48.604;2.096;2023-11-19T11:15:20;15.33;;;3.80;;
10511;SDS011;5304;48.604;2.096;2023-11-19T11:18:05;12.40;;;2.87;;
10511;SDS011;5304;48.604;2.096;2023-11-19T11:20:53;14.80;;;4.00;;
10511;SDS011;5304;48.604;2.096;2023-11-19T11:24:01;17.00;;;3.80;;
10511;SDS011;5304;48.604;2.096;2023-11-19T11:27:03;12.80;;;3.40;;
10511;SDS011;5304;48.604;2.096;2023-11-19T11:30:01;9.67;;;3.20;;
10511;SDS011;5304;48.604;2.096;2023-11-19T11:32:59;13.93;;;3.63;;
10511;SDS011;5304;48.604;2.096;2023-11-19T11:36:22;15.97;;;3.63;;
10511;SDS011;5304;48.604;2.096;2023-11-19T11:39:07;12.33;;;3.47;;
10511;SDS011;5304;48.604;2.096;2023-11-19T11:50:55;14.07;;;3.33;;
10511;SDS011;5304;48.604;2.096;2023-11-19T11:53:41;15.63;;;3.60;;
10511;SDS011;5304;48.604;2.096;2023-11-19T11:56:32;10.57;;;3.77;;
10511;SDS011;5304;48.604;2.096;2023-11-19T11:59:20;12.90;;;3.77;;
10511;SDS011;5304;48.604;2.096;2023-11-19T12:02:25;6.93;;;2.97;;
10511;SDS011;5304;48.604;2.096;2023-11-19T12:05:10;13.90;;;3.70;;
10511;SDS011;5304;48.604;2.096;2023-11-19T12:07:54;12.80;;;3.33;;
10511;SDS011;5304;48.604;2.096;2023-11-19T12:10:43;13.73;;;3.47;;
10511;SDS011;5304;48.604;2.096;2023-11-19T12:16:45;13.07;;;3.13;;
10511;SDS011;5304;48.604;2.096;2023-11-19T12:19:29;10.20;;;2.87;;
10511;SDS011;5304;48.604;2.096;2023-11-19T12:22:14;15.73;;;4.00;;
10511;SDS011;5304;48.604;2.096;2023-11-19T12:24:59;13.20;;;3.23;;
10511;SDS011;5304;48.604;2.096;2023-11-19T12:27:44;12.87;;;3.63;;
10511;SDS011;5304;48.604;2.096;2023-11-19T12:30:31;14.03;;;3.30;;
10511;SDS011;5304;48.604;2.096;2023-11-19T12:33:16;10.20;;;3.20;;
10511;SDS011;5304;48.604;2.096;2023-11-19T12:36:01;11.73;;;3.37;;
10511;SDS011;5304;48.604;2.096;2023-11-19T12:38:48;18.23;;;3.77;;
10511;SDS011;5304;48.604;2.096;2023-11-19T12:41:33;14.77;;;3.47;;
10511;SDS011;5304;48.604;2.096;2023-11-19T12:44:32;16.20;;;3.73;;
10511;SDS011;5304;48.604;2.096;2023-11-19T12:47:18;15.10;;;3.60;;
10511;SDS011;5304;48.604;2.096;2023-11-19T12:50:02;11.90;;;4.03;;
10511;SDS011;5304;48.604;2.096;2023-11-19T12:52:56;13.53;;;2.90;;
10511;SDS011;5304;48.604;2.096;2023-11-19T12:55:41;16.70;;;3.50;;
10511;SDS011;5304;48.604;2.096;2023-11-19T12:58:33;16.10;;;3.50;;
10511;SDS011;5304;48.604;2.096;2023-11-19T13:01:20;17.17;;;3.97;;
10511;SDS011;5304;48.604;2.096;2023-11-19T13:04:20;15.10;;;4.13;;
10511;SDS011;5304;48.604;2.096;2023-11-19T13:07:04;13.97;;;3.63;;
10511;SDS011;5304;48.604;2.096;2023-11-19T13:09:48;12.27;;;3.53;;
10511;SDS011;5304;48.604;2.096;2023-11-19T13:12:33;14.30;;;3.50;;
10511;SDS011;5304;48.604;2.096;2023-11-19T13:15:23;14.40;;;3.33;;
10511;SDS011;5304;48.604;2.096;2023-11-19T13:18:09;18.97;;;3.97;;
10511;SDS011;5304;48.604;2.096;2023-11-19T13:20:53;12.57;;;3.90;;
10511;SDS011;5304;48.604;2.096;2023-11-19T13:23:41;15.93;;;4.33;;
10511;SDS011;5304;48.604;2.096;2023-11-19T13:26:25;17.80;;;5.37;;
10511;SDS011;5304;48.604;2.096;2023-11-19T13:29:10;14.70;;;3.40;;
10511;SDS011;5304;48.604;2.096;2023-11-19T13:31:54;16.00;;;3.70;;
10511;SDS011;5304;48.604;2.096;2023-11-19T13:34:39;14.27;;;3.57;;
10511;SDS011;5304;48.604;2.096;2023-11-19T13:37:23;14.70;;;4.07;;
10511;SDS011;5304;48.604;2.096;2023-11-19T13:40:08;14.93;;;3.40;;
10511;SDS011;5304;48.604;2.096;2023-11-19T13:42:59;13.83;;;2.97;;
10511;SDS011;5304;48.604;2.096;2023-11-19T13:45:43;14.83;;;3.43;;
10511;SDS011;5304;48.604;2.096;2023-11-19T13:48:27;18.77;;;4.20;;
10511;SDS011;5304;48.604;2.096;2023-11-19T13:51:12;18.77;;;3.70;;
10511;SDS011;5304;48.604;2.096;2023-11-19T13:53:56;12.70;;;3.53;;
10511;SDS011;5304;48.604;2.096;2023-11-19T13:56:41;16.53;;;3.70;;
10511;SDS011;5304;48.604;2.096;2023-11-19T13:59:25;16.10;;;5.10;;
10511;SDS011;5304;48.604;2.096;2023-11-19T14:02:10;19.90;;;4.07;;
10511;SDS011;5304;48.604;2.096;2023-11-19T14:04:54;13.23;;;4.17;;
10511;SDS011;5304;48.604;2.096;2023-11-19T14:07:39;12.47;;;3.10;;
10511;SDS011;5304;48.604;2.096;2023-11-19T14:10:24;17.33;;;3.40;;
10511;SDS011;5304;48.604;2.096;2023-11-19T14:13:08;14.37;;;2.87;;
10511;SDS011;5304;48.604;2.096;2023-11-19T14:15:52;17.10;;;3.93;;
10511;SDS011;5304;48.604;2.096;2023-11-19T14:18:37;13.87;;;3.40;;
10511;SDS011;5304;48.604;2.096;2023-11-19T14:21:21;10.70;;;3.60;;
10511;SDS011;5304;48.604;2.096;2023-11-19T14:24:06;12.73;;;4.47;;
10511;SDS011;5304;48.604;2.096;2023-11-19T14:26:50;16.57;;;4.50;;
10511;SDS011;5304;48.604;2.096;2023-11-19T14:29:35;15.00;;;3.87;;
10511;SDS011;5304;48.604;2.096;2023-11-19T14:32:20;12.10;;;3.67;;
10511;SDS011;5304;48.604;2.096;2023-11-19T14:35:05;13.33;;;2.73;;
10511;SDS011;5304;48.604;2.096;2023-11-19T14:37:50;10.30;;;3.27;;
10511;SDS011;5304;48.604;2.096;2023-11-19T14:40:34;16.80;;;3.70;;
10511;SDS011;5304;48.604;2.096;2023-11-19T14:43:18;14.00;;;4.17;;
10511;SDS011;5304;48.604;2.096;2023-11-19T14:46:02;11.30;;;3.20;;
10511;SDS011;5304;48.604;2.096;2023-11-19T14:48:47;13.17;;;3.33;;
10511;SDS011;5304;48.604;2.096;2023-11-19T14:51:31;12.47;;;3.30;;
10511;SDS011;5304;48.604;2.096;2023-11-19T14:54:15;12.83;;;3.53;;
10511;SDS011;5304;48.604;2.096;2023-11-19T14:56:59;13.50;;;2.77;;
10511;SDS011;5304;48.604;2.096;2023-11-19T14:59:44;11.50;;;3.40;;
10511;SDS011;5304;48.604;2.096;2023-11-19T15:02:29;14.07;;;3.60;;
10511;SDS011;5304;48.604;2.096;2023-11-19T15:05:14;11.23;;;3.87;;
10511;SDS011;5304;48.604;2.096;2023-11-19T15:07:58;13.33;;;3.93;;
10511;SDS011;5304;48.604;2.096;2023-11-19T15:10:43;17.30;;;3.57;;
10511;SDS011;5304;48.604;2.096;2023-11-19T15:13:28;15.67;;;3.53;;
10511;SDS011;5304;48.604;2.096;2023-11-19T15:16:13;14.97;;;3.70;;
10511;SDS011;5304;48.604;2.096;2023-11-19T15:18:58;16.97;;;4.17;;
10511;SDS011;5304;48.604;2.096;2023-11-19T15:21:43;18.40;;;4.20;;
10511;SDS011;5304;48.604;2.096;2023-11-19T15:24:27;15.53;;;4.10;;
10511;SDS011;5304;48.604;2.096;2023-11-19T15:27:12;16.30;;;4.03;;
10511;SDS011;5304;48.604;2.096;2023-11-19T15:29:57;15.90;;;3.43;;
10511;SDS011;5304;48.604;2.096;2023-11-19T15:32:42;19.13;;;4.23;;
10511;SDS011;5304;48.604;2.096;2023-11-19T15:35:26;20.30;;;4.27;;
10511;SDS011;5304;48.604;2.096;2023-11-19T15:38:11;17.50;;;3.70;;
10511;SDS011;5304;48.604;2.096;2023-11-19T15:40:55;23.57;;;5.00;;
10511;SDS011;5304;48.604;2.096;2023-11-19T15:43:39;18.33;;;4.07;;
10511;SDS011;5304;48.604;2.096;2023-11-19T15:46:24;15.80;;;3.83;;
10511;SDS011;5304;48.604;2.096;2023-11-19T15:49:08;11.03;;;3.00;;
10511;SDS011;5304;48.604;2.096;2023-11-19T15:51:53;16.83;;;3.80;;
10511;SDS011;5304;48.604;2.096;2023-11-19T15:54:37;18.57;;;3.87;;
10511;SDS011;5304;48.604;2.096;2023-11-19T15:57:21;14.03;;;3.70;;
10511;SDS011;5304;48.604;2.096;2023-11-19T16:00:06;14.97;;;3.97;;
10511;SDS011;5304;48.604;2.096;2023-11-19T16:02:54;20.53;;;4.10;;
10511;SDS011;5304;48.604;2.096;2023-11-19T16:05:40;17.10;;;4.00;;
10511;SDS011;5304;48.604;2.096;2023-11-19T16:08:24;14.80;;;4.43;;
10511;SDS011;5304;48.604;2.096;2023-11-19T16:11:09;21.83;;;5.33;;
10511;SDS011;5304;48.604;2.096;2023-11-19T16:13:53;18.33;;;4.70;;
10511;SDS011;5304;48.604;2.096;2023-11-19T16:16:38;10.93;;;4.00;;
10511;SDS011;5304;48.604;2.096;2023-11-19T16:19:22;15.17;;;4.20;;
10511;SDS011;5304;48.604;2.096;2023-11-19T16:22:07;16.33;;;4.97;;
10511;SDS011;5304;48.604;2.096;2023-11-19T16:24:55;19.83;;;4.87;;
10511;SDS011;5304;48.604;2.096;2023-11-19T16:27:39;16.40;;;4.03;;
10511;SDS011;5304;48.604;2.096;2023-11-19T16:30:23;17.87;;;4.23;;
10511;SDS011;5304;48.604;2.096;2023-11-19T16:33:07;12.50;;;4.10;;
10511;SDS011;5304;48.604;2.096;2023-11-19T16:35:52;18.00;;;3.73;;
10511;SDS011;5304;48.604;2.096;2023-11-19T16:38:41;17.33;;;3.63;;
10511;SDS011;5304;48.604;2.096;2023-11-19T16:41:25;13.07;;;4.07;;
10511;SDS011;5304;48.604;2.096;2023-11-19T16:44:12;16.07;;;4.17;;
10511;SDS011;5304;48.604;2.096;2023-11-19T16:46:57;15.33;;;3.70;;
10511;SDS011;5304;48.604;2.096;2023-11-19T16:49:42;21.10;;;4.37;;
10511;SDS011;5304;48.604;2.096;2023-11-19T16:52:26;26.47;;;4.57;;
10511;SDS011;5304;48.604;2.096;2023-11-19T16:55:10;14.40;;;4.07;;
10511;SDS011;5304;48.604;2.096;2023-11-19T16:57:55;15.57;;;4.33;;
10511;SDS011;5304;48.604;2.096;2023-11-19T17:00:39;15.87;;;4.50;;
10511;SDS011;5304;48.604;2.096;2023-11-19T17:03:23;14.93;;;3.93;;
10511;SDS011;5304;48.604;2.096;2023-11-19T17:06:08;21.07;;;4.13;;
10511;SDS011;5304;48.604;2.096;2023-11-19T17:08:53;26.57;;;5.87;;
10511;SDS011;5304;48.604;2.096;2023-11-19T17:11:41;18.90;;;5.17;;
10511;SDS011;5304;48.604;2.096;2023-11-19T17:14:26;18.37;;;5.40;;
10511;SDS011;5304;48.604;2.096;2023-11-19T17:17:11;17.07;;;4.83;;
10511;SDS011;5304;48.604;2.096;2023-11-19T17:19:55;15.93;;;4.77;;
10511;SDS011;5304;48.604;2.096;2023-11-19T17:22:40;17.33;;;5.30;;
10511;SDS011;5304;48.604;2.096;2023-11-19T17:25:24;13.50;;;4.87;;
10511;SDS011;5304;48.604;2.096;2023-11-19T17:28:08;15.50;;;5.17;;
10511;SDS011;5304;48.604;2.096;2023-11-19T17:30:53;17.80;;;5.10;;
10511;SDS011;5304;48.604;2.096;2023-11-19T17:33:37;17.53;;;4.40;;
10511;SDS011;5304;48.604;2.096;2023-11-19T17:36:22;20.80;;;4.67;;
10511;SDS011;5304;48.604;2.096;2023-11-19T17:39:06;21.90;;;4.50;;
10511;SDS011;5304;48.604;2.096;2023-11-19T17:41:51;14.77;;;5.07;;
10511;SDS011;5304;48.604;2.096;2023-11-19T17:44:36;18.07;;;3.73;;
10511;SDS011;5304;48.604;2.096;2023-11-19T17:47:20;17.37;;;4.57;;
10511;SDS011;5304;48.604;2.096;2023-11-19T17:50:04;16.10;;;3.77;;
10511;SDS011;5304;48.604;2.096;2023-11-19T17:52:49;20.30;;;4.77;;
10511;SDS011;5304;48.604;2.096;2023-11-19T17:55:34;16.90;;;4.50;;
10511;SDS011;5304;48.604;2.096;2023-11-19T17:58:18;17.57;;;4.63;;
10511;SDS011;5304;48.604;2.096;2023-11-19T18:01:03;21.40;;;5.90;;
10511;SDS011;5304;48.604;2.096;2023-11-19T18:03:48;22.13;;;5.20;;
10511;SDS011;5304;48.604;2.096;2023-11-19T18:06:33;16.37;;;4.20;;
10511;SDS011;5304;48.604;2.096;2023-11-19T18:09:18;19.77;;;4.87;;
10511;SDS011;5304;48.604;2.096;2023-11-19T18:12:03;16.77;;;4.27;;
10511;SDS011;5304;48.604;2.096;2023-11-19T18:14:48;17.40;;;3.80;;
10511;SDS011;5304;48.604;2.096;2023-11-19T18:17:33;19.70;;;5.00;;
10511;SDS011;5304;48.604;2.096;2023-11-19T18:20:19;13.73;;;4.20;;
10511;SDS011;5304;48.604;2.096;2023-11-19T18:23:04;14.20;;;4.30;;
10511;SDS011;5304;48.604;2.096;2023-11-19T18:25:48;10.33;;;3.77;;
10511;SDS011;5304;48.604;2.096;2023-11-19T18:28:33;16.93;;;4.00;;
10511;SDS011;5304;48.604;2.096;2023-11-19T18:31:17;15.17;;;4.20;;
10511;SDS011;5304;48.604;2.096;2023-11-19T18:34:02;23.23;;;4.33;;
10511;SDS011;5304;48.604;2.096;2023-11-19T18:36:46;18.30;;;4.30;;
10511;SDS011;5304;48.604;2.096;2023-11-19T18:39:30;21.33;;;4.47;;
10511;SDS011;5304;48.604;2.096;2023-11-19T18:42:14;23.63;;;5.37;;
10511;SDS011;5304;48.604;2.096;2023-11-19T18:45:00;21.13;;;5.23;;
10511;SDS011;5304;48.604;2.096;2023-11-19T18:47:47;15.20;;;3.97;;
10511;SDS011;5304;48.604;2.096;2023-11-19T18:50:34;24.50;;;4.60;;
10511;SDS011;5304;48.604;2.096;2023-11-19T18:53:18;17.80;;;4.20;;
10511;SDS011;5304;48.604;2.096;2023-11-19T18:56:03;19.30;;;4.63;;
10511;SDS011;5304;48.604;2.096;2023-11-19T18:58:50;15.67;;;4.30;;
10511;SDS011;5304;48.604;2.096;2023-11-19T19:01:34;16.63;;;3.80;;
10511;SDS011;5304;48.604;2.096;2023-11-19T19:04:18;20.73;;;4.00;;
10511;SDS011;5304;48.604;2.096;2023-11-19T19:07:03;9.47;;;3.30;;
10511;SDS011;5304;48.604;2.096;2023-11-19T19:09:48;20.60;;;4.57;;
10511;SDS011;5304;48.604;2.096;2023-11-19T19:12:37;15.87;;;3.70;;
10511;SDS011;5304;48.604;2.096;2023-11-19T19:15:22;16.43;;;3.67;;
10511;SDS011;5304;48.604;2.096;2023-11-19T19:18:09;17.30;;;3.33;;
10511;SDS011;5304;48.604;2.096;2023-11-19T19:20:53;17.87;;;3.70;;
10511;SDS011;5304;48.604;2.096;2023-11-19T19:23:38;12.47;;;3.93;;
10511;SDS011;5304;48.604;2.096;2023-11-19T19:26:22;22.43;;;4.37;;
10511;SDS011;5304;48.604;2.096;2023-11-19T19:29:06;19.53;;;4.10;;
10511;SDS011;5304;48.604;2.096;2023-11-19T19:31:50;16.80;;;4.17;;
10511;SDS011;5304;48.604;2.096;2023-11-19T19:34:35;17.67;;;4.27;;
10511;SDS011;5304;48.604;2.096;2023-11-19T19:37:19;21.87;;;4.10;;
10511;SDS011;5304;48.604;2.096;2023-11-19T19:40:04;20.07;;;4.90;;
10511;SDS011;5304;48.604;2.096;2023-11-19T19:42:48;22.43;;;5.57;;
10511;SDS011;5304;48.604;2.096;2023-11-19T19:45:34;16.13;;;4.87;;
10511;SDS011;5304;48.604;2.096;2023-11-19T19:48:19;17.73;;;5.53;;
10511;SDS011;5304;48.604;2.096;2023-11-19T19:51:03;16.43;;;4.23;;
10511;SDS011;5304;48.604;2.096;2023-11-19T19:53:50;12.90;;;4.60;;
10511;SDS011;5304;48.604;2.096;2023-11-19T19:56:34;15.37;;;4.17;;
10511;SDS011;5304;48.604;2.096;2023-11-19T19:59:19;18.00;;;4.80;;
10511;SDS011;5304;48.604;2.096;2023-11-19T20:02:03;18.00;;;4.40;;
10511;SDS011;5304;48.604;2.096;2023-11-19T20:04:47;16.00;;;4.33;;
10511;SDS011;5304;48.604;2.096;2023-11-19T20:07:31;14.77;;;4.43;;
10511;SDS011;5304;48.604;2.096;2023-11-19T20:10:16;16.67;;;5.37;;
10511;SDS011;5304;48.604;2.096;2023-11-19T20:13:01;17.40;;;4.57;;
10511;SDS011;5304;48.604;2.096;2023-11-19T20:15:52;19.27;;;5.17;;
10511;SDS011;5304;48.604;2.096;2023-11-19T20:18:37;21.20;;;4.43;;
10511;SDS011;5304;48.604;2.096;2023-11-19T20:21:21;18.53;;;3.80;;
10511;SDS011;5304;48.604;2.096;2023-11-19T20:24:06;21.03;;;4.93;;
10511;SDS011;5304;48.604;2.096;2023-11-19T20:26:50;14.43;;;3.93;;
10511;SDS011;5304;48.604;2.096;2023-11-19T20:29:37;16.87;;;3.50;;
10511;SDS011;5304;48.604;2.096;2023-11-19T20:32:21;17.37;;;4.20;;
10511;SDS011;5304;48.604;2.096;2023-11-19T20:35:06;19.63;;;4.20;;
10511;SDS011;5304;48.604;2.096;2023-11-19T20:37:52;13.83;;;3.63;;
10511;SDS011;5304;48.604;2.096;2023-11-19T20:40:36;22.87;;;4.03;;
10511;SDS011;5304;48.604;2.096;2023-11-19T20:43:22;17.00;;;4.17;;
10511;SDS011;5304;48.604;2.096;2023-11-19T20:46:07;14.03;;;4.27;;
10511;SDS011;5304;48.604;2.096;2023-11-19T20:48:51;14.63;;;3.57;;
10511;SDS011;5304;48.604;2.096;2023-11-19T20:51:36;16.13;;;3.57;;
10511;SDS011;5304;48.604;2.096;2023-11-19T20:54:20;14.47;;;3.80;;
10511;SDS011;5304;48.604;2.096;2023-11-19T20:57:04;17.80;;;3.50;;
10511;SDS011;5304;48.604;2.096;2023-11-19T20:59:49;21.50;;;4.20;;
10511;SDS011;5304;48.604;2.096;2023-11-19T21:02:33;17.30;;;4.00;;
10511;SDS011;5304;48.604;2.096;2023-11-19T21:05:17;15.63;;;3.93;;
10511;SDS011;5304;48.604;2.096;2023-11-19T21:08:01;14.53;;;4.00;;
10511;SDS011;5304;48.604;2.096;2023-11-19T21:10:45;12.57;;;3.43;;
10511;SDS011;5304;48.604;2.096;2023-11-19T21:13:32;10.83;;;3.00;;
10511;SDS011;5304;48.604;2.096;2023-11-19T21:16:16;16.50;;;3.63;;
10511;SDS011;5304;48.604;2.096;2023-11-19T21:19:00;12.73;;;3.77;;
10511;SDS011;5304;48.604;2.096;2023-11-19T21:21:45;20.97;;;3.37;;
10511;SDS011;5304;48.604;2.096;2023-11-19T21:24:29;17.50;;;3.63;;
10511;SDS011;5304;48.604;2.096;2023-11-19T21:27:14;19.20;;;4.33;;
10511;SDS011;5304;48.604;2.096;2023-11-19T21:29:58;20.07;;;3.27;;
10511;SDS011;5304;48.604;2.096;2023-11-19T21:32:42;12.97;;;3.27;;
10511;SDS011;5304;48.604;2.096;2023-11-19T21:35:26;14.83;;;3.30;;
10511;SDS011;5304;48.604;2.096;2023-11-19T21:38:11;19.20;;;4.30;;
10511;SDS011;5304;48.604;2.096;2023-11-19T21:40:55;21.13;;;3.80;;
10511;SDS011;5304;48.604;2.096;2023-11-19T21:43:39;19.77;;;3.90;;
10511;SDS011;5304;48.604;2.096;2023-11-19T21:46:23;15.90;;;3.40;;
10511;SDS011;5304;48.604;2.096;2023-11-19T21:49:07;13.80;;;4.03;;
10511;SDS011;5304;48.604;2.096;2023-11-19T21:51:51;19.03;;;3.67;;
10511;SDS011;5304;48.604;2.096;2023-11-19T21:54:36;15.17;;;3.50;;